map of SXL home
SXL - Airport
Location
City:  Sligo, County Sligo, Connacht, Ireland
ICAO:EISG
IATA:SXL

Details
Type:Airport (Aerodrome, Airfield)
Latitude:5416'49"N (54.280214)
Longitude:835'57"W (-8.599207)
Elevation:11 ft (3 m)
Variation:3.96W (WMM2015 magnetic declination)
0.17 annual change
Runways:1
Longest:3933 × 98 ft (1199 × 30 m), paved

Time
Time Zone:UTC+0 (DST+1)
Local Time:

Weather
METAR:EISG 181800Z 15009KT 120V190 9999 FEW027 BKN060 07/06 Q1001

Related Locations
Nearby:
Farthest:SZS: 11900 mi / 19152 km
Ryan's Creek, Stewart Island, STL, NZ

Find:

   beyond  
but within

Other Information
Maps:
NOTAMs:
Links:
Sources:

  
  • flag of Ireland
  • flag of Connacht
  

Sectional Chart

Flight Planning
at skyvector.com

Satellite Image

Google Maps Satellite view

 

Copyright © 2004-2019 Karl L. Swartz. All rights reserved.
The Great Circle Mapper name and logo are trademarks of the Great Circle Mapper.
All other trademarks mentioned herein belong to their respective owners.
Please see credits for attibutions and further copyright information.

  Follow gcmap on Facebook Follow gcmap on Twitter Follow gcmap on Google+ GCmap on LinkedIn

hCard Microformat

Geo Microformat